Time;durP1;ratioP1;P1;durP2;ratioP2;P2;SDS_P1;SDS_P2;PMS_P1;PMS_P2;Temp;Humidity;BMP_temperature;BMP_pressure;BME280_temperature;BME280_humidity;BME280_pressure;Samples;Min_cycle;Max_cycle;Signal;HPM_P1;HPM_P2
2020/12/16 00:01:32;;;;;;;;;;;;;;;22.29;25.95;98710.88;5102076;28;866;-75
2020/12/16 00:03:57;;;;;;;;;;;;;;;22.47;25.60;98705.66;5084519;28;653;-75
2020/12/16 00:06:22;;;;;;;;;;;;;;;22.67;25.26;98708.50;5101817;28;650;-75
2020/12/16 00:08:48;;;;;;;;;;;;;;;22.83;25.13;98711.44;5102272;28;666;-75
2020/12/16 00:11:14;;;;;;;;;;;;;;;22.33;25.49;98695.41;5101548;28;1979;-74
2020/12/16 00:13:39;;;;;;;;;;;;;;;21.59;26.71;98705.94;5101404;28;934;-75
2020/12/16 00:16:05;;;;;;;;;;;;;;;21.60;26.62;98710.34;5101997;28;809;-73
2020/12/16 00:18:31;;;;;;;;;;;;;;;21.84;26.82;98709.16;5101598;28;650;-75
2020/12/16 00:20:56;;;;;;;;;;;;;;;22.15;26.11;98717.59;5101590;28;738;-75
2020/12/16 00:23:22;;;;;;;;;;;;;;;22.32;25.98;98715.66;5101586;28;690;-75
2020/12/16 00:25:47;;;;;;;;;;;;;;;22.60;25.49;98720.00;5101474;28;1559;-74
2020/12/16 00:28:13;;;;;;;;;;;;;;;22.65;25.14;98713.84;5101219;28;870;-73
2020/12/16 00:30:38;;;;;;;;;;;;;;;22.16;25.77;98716.34;5101343;28;1976;-73
2020/12/16 00:33:04;;;;;;;;;;;;;;;21.62;26.46;98722.06;5101384;28;706;-74
2020/12/16 00:35:29;;;;;;;;;;;;;;;21.62;27.25;98724.91;5101361;28;699;-74
2020/12/16 00:37:54;;;;;;;;;;;;;;;21.97;26.29;98725.56;5101365;28;633;-74
2020/12/16 00:40:20;;;;;;;;;;;;;;;22.15;25.83;98720.41;5101112;28;1047;-75
2020/12/16 00:42:46;;;;;;;;;;;;;;;22.41;25.51;98730.09;5100938;28;933;-74
2020/12/16 00:45:14;;;;;;;;;;;;;;;22.73;25.04;98729.47;5101103;28;998;-74
2020/12/16 00:47:40;;;;;;;;;;;;;;;22.52;25.31;98730.69;5101420;28;594;-75
2020/12/16 00:50:06;;;;;;;;;;;;;;;22.00;25.96;98719.84;5101047;28;1975;-75
2020/12/16 00:52:31;;;;;;;;;;;;;;;21.40;26.45;98718.75;5083700;28;1284;-75
2020/12/16 00:54:58;;;;;;;;;;;;;;;21.70;26.91;98723.56;5083381;28;1303;-75
2020/12/16 00:57:23;;;;;;;;;;;;;;;22.19;25.78;98721.16;5100658;28;837;-75
2020/12/16 00:59:49;;;;;;;;;;;;;;;22.31;25.74;98723.38;5083392;28;1158;-75
2020/12/16 01:02:15;;;;;;;;;;;;;;;22.62;25.33;98723.19;5083578;28;1249;-75
2020/12/16 01:04:40;;;;;;;;;;;;;;;22.83;25.03;98717.09;5083454;28;1197;-75
2020/12/16 01:07:06;;;;;;;;;;;;;;;21.31;26.66;98715.66;5100383;28;594;-75
2020/12/16 01:09:32;;;;;;;;;;;;;;;21.17;26.98;98712.97;5083073;28;1910;-75
2020/12/16 01:11:57;;;;;;;;;;;;;;;21.55;26.45;98713.66;5100653;28;900;-75
2020/12/16 01:14:23;;;;;;;;;;;;;;;21.97;26.24;98714.25;5083117;28;1236;-75
2020/12/16 01:16:49;;;;;;;;;;;;;;;22.21;25.78;98715.06;5082903;28;1283;-75
2020/12/16 01:19:27;;;;;;;;;;;;;;;22.57;25.36;98712.38;5082889;28;1281;-75
2020/12/16 01:21:53;;;;;;;;;;;;;;;22.68;24.93;98715.00;5083185;28;1326;-75
2020/12/16 01:24:18;;;;;;;;;;;;;;;22.43;25.31;98721.13;5100058;28;1057;-75
2020/12/16 01:26:50;;;;;;;;;;;;;;;21.60;26.48;98710.34;5082433;28;1167;-74
2020/12/16 01:29:17;;;;;;;;;;;;;;;19.42;26.76;98415.53;5083124;28;900;-75
2020/12/16 01:31:43;;;;;;;;;;;;;;;21.77;26.90;98703.63;5083279;28;1902;-75
2020/12/16 01:34:19;;;;;;;;;;;;;;;22.22;25.71;98711.78;5083043;28;937;-74
2020/12/16 01:36:49;;;;;;;;;;;;;;;22.53;25.11;98708.78;5082945;28;1112;-75
2020/12/16 01:39:15;;;;;;;;;;;;;;;22.73;24.81;98709.59;5099884;28;1192;-75
2020/12/16 01:41:46;;;;;;;;;;;;;;;22.71;25.14;98702.78;5082695;28;1347;-75
2020/12/16 01:44:13;;;;;;;;;;;;;;;22.60;25.35;98711.50;5082810;28;1449;-75
2020/12/16 01:46:47;;;;;;;;;;;;;;;22.13;25.58;98708.72;5083122;28;1194;-75
2020/12/16 01:49:13;;;;;;;;;;;;;;;21.36;26.57;98703.06;5082508;28;1158;-75
2020/12/16 01:51:39;;;;;;;;;;;;;;;21.44;26.35;98701.72;5066082;28;1906;-75
2020/12/16 01:54:11;;;;;;;;;;;;;;;21.80;26.44;98714.09;5065421;28;1211;-75
2020/12/16 01:56:38;;;;;;;;;;;;;;;22.26;25.89;98706.84;5082242;28;1162;-75
2020/12/16 01:59:14;;;;;;;;;;;;;;;22.53;25.48;98697.44;5082915;28;1122;-75
2020/12/16 02:01:46;;;;;;;;;;;;;;;22.79;25.03;98699.34;5066712;28;1300;-75
2020/12/16 02:04:11;;;;;;;;;;;;;;;22.33;25.33;98703.91;5100484;28;582;-75
2020/12/16 02:06:39;;;;;;;;;;;;;;;21.53;26.27;98699.94;5100307;28;614;-75
2020/12/16 02:09:06;;;;;;;;;;;;;;;21.71;26.24;98708.19;5065577;28;1269;-75
2020/12/16 02:11:34;;;;;;;;;;;;;;;22.02;26.10;98702.38;5099456;28;1949;-74
2020/12/16 02:14:07;;;;;;;;;;;;;;;22.30;25.65;98718.13;5082271;28;1290;-75
2020/12/16 02:16:39;;;;;;;;;;;;;;;22.43;25.43;98715.47;5082215;28;1229;-75
2020/12/16 02:19:05;;;;;;;;;;;;;;;22.64;25.02;98709.41;5084090;28;450;-74
2020/12/16 02:21:41;;;;;;;;;;;;;;;22.45;25.30;98704.50;5086557;28;1194;-74
2020/12/16 02:24:07;;;;;;;;;;;;;;;21.70;26.29;98708.59;5086224;28;1233;-75
2020/12/16 02:26:37;;;;;;;;;;;;;;;21.29;26.65;98707.53;5086192;28;1333;-75
2020/12/16 02:29:04;;;;;;;;;;;;;;;21.85;26.49;98701.47;5086316;28;1287;-74
2020/12/16 02:31:29;;;;;;;;;;;;;;;22.32;25.88;98698.66;5086431;28;1905;-75
2020/12/16 02:34:12;;;;;;;;;;;;;;;22.58;24.98;98694.09;5072044;28;1174;-74
2020/12/16 02:36:41;;;;;;;;;;;;;;;22.63;25.16;98699.28;5103724;28;696;-73
2020/12/16 02:39:12;;;;;;;;;;;;;;;22.69;25.26;98694.72;5085767;28;1146;-73
2020/12/16 02:41:48;;;;;;;;;;;;;;;21.64;26.26;98699.78;5085509;28;1409;-75
2020/12/16 02:44:14;;;;;;;;;;;;;;;21.49;26.58;98693.53;5103482;28;935;-73
2020/12/16 02:46:52;;;;;;;;;;;;;;;21.50;26.46;98691.50;5085969;28;1178;-75
2020/12/16 02:49:18;;;;;;;;;;;;;;;21.95;26.27;98694.03;5069483;28;1262;-74
2020/12/16 02:51:44;;;;;;;;;;;;;;;22.47;25.32;98704.84;5085726;28;1906;-73
2020/12/16 02:54:09;;;;;;;;;;;;;;;22.51;25.28;98705.59;5085182;28;1158;-73
2020/12/16 02:57:03;;;;;;;;;;;;;;;22.70;24.85;98701.97;5079461;28;997;-74
2020/12/16 02:59:30;;;;;;;;;;;;;;;22.39;24.99;98700.56;5085652;28;1043;-75
2020/12/16 03:02:06;;;;;;;;;;;;;;;21.85;25.53;98698.63;5086192;28;1020;-75
2020/12/16 03:05:04;;;;;;;;;;;;;;;21.63;26.76;98692.53;5069338;28;1220;-74
2020/12/16 03:07:35;;;;;;;;;;;;;;;22.27;25.50;98702.78;5085744;28;1289;-74
2020/12/16 03:10:01;;;;;;;;;;;;;;;22.59;25.05;98707.06;5085308;28;1909;-74
2020/12/16 03:12:29;;;;;;;;;;;;;;;22.63;25.11;98713.47;5085498;28;940;-75
2020/12/16 03:14:55;;;;;;;;;;;;;;;22.74;24.87;98708.41;5085500;28;1241;-75
2020/12/16 03:17:22;;;;;;;;;;;;;;;22.47;25.10;98702.03;5085160;28;1330;-74
2020/12/16 03:19:53;;;;;;;;;;;;;;;21.79;26.00;98709.66;5085529;28;1238;-76
2020/12/16 03:22:20;;;;;;;;;;;;;;;20.84;27.15;98711.81;5085816;28;1150;-75
2020/12/16 03:25:12;;;;;;;;;;;;;;;21.74;26.37;98710.13;5085169;28;1163;-75
2020/12/16 03:27:48;;;;;;;;;;;;;;;22.16;25.85;98710.69;5084693;28;1232;-75
2020/12/16 03:30:26;;;;;;;;;;;;;;;22.51;25.31;98716.94;5084707;28;1968;-74
2020/12/16 03:33:15;;;;;;;;;;;;;;;22.59;24.99;98716.38;5094385;28;1059;-75
2020/12/16 03:36:13;;;;;;;;;;;;;;;22.61;25.12;98721.63;5079040;28;1230;-73
2020/12/16 03:38:39;;;;;;;;;;;;;;;22.04;25.47;98722.63;5085124;28;1341;-75
2020/12/16 03:41:05;;;;;;;;;;;;;;;21.20;26.59;98709.31;5084691;28;1195;-75
2020/12/16 03:43:36;;;;;;;;;;;;;;;21.51;26.57;98715.78;5084733;28;1287;-75
2020/12/16 03:46:06;;;;;;;;;;;;;;;21.73;26.50;98719.06;5084844;28;1215;-75
2020/12/16 03:48:33;;;;;;;;;;;;;;;22.24;25.55;98726.34;5084753;28;1232;-75
2020/12/16 03:50:59;;;;;;;;;;;;;;;22.39;25.42;98726.09;5084869;28;1984;-75
2020/12/16 03:53:24;;;;;;;;;;;;;;;22.48;25.45;98731.97;5102119;28;669;-75
2020/12/16 03:56:09;;;;;;;;;;;;;;;22.51;25.32;98726.25;5102101;28;1029;-75
2020/12/16 03:59:08;;;;;;;;;;;;;;;22.25;25.50;98732.81;5101010;28;1129;-75
2020/12/16 04:01:39;;;;;;;;;;;;;;;21.32;26.53;98735.03;5093576;28;1862;-75
2020/12/16 04:04:04;;;;;;;;;;;;;;;21.62;26.22;98739.06;5077372;28;1289;-74
2020/12/16 04:06:34;;;;;;;;;;;;;;;21.66;26.62;98736.16;5095290;28;1232;-75
2020/12/16 04:09:03;;;;;;;;;;;;;;;22.07;25.87;98752.91;5092480;28;1243;-75
2020/12/16 04:11:43;;;;;;;;;;;;;;;22.51;25.15;98745.31;5092480;28;1918;-73
2020/12/16 04:14:27;;;;;;;;;;;;;;;22.73;24.98;98749.31;5093227;28;1219;-75
2020/12/16 04:16:56;;;;;;;;;;;;;;;21.97;25.74;98751.09;5059101;28;1197;-75
2020/12/16 04:19:25;;;;;;;;;;;;;;;21.36;26.60;98756.84;5093833;28;1466;-75
2020/12/16 04:21:53;;;;;;;;;;;;;;;21.49;26.41;98750.16;5068346;28;1277;-75
2020/12/16 04:24:21;;;;;;;;;;;;;;;21.85;26.41;98749.63;5084246;28;1165;-75
2020/12/16 04:26:58;;;;;;;;;;;;;;;22.38;25.43;98764.16;5083735;28;1154;-75
2020/12/16 04:29:24;;;;;;;;;;;;;;;22.53;25.06;98765.50;5083756;28;1019;-75
2020/12/16 04:31:50;;;;;;;;;;;;;;;22.62;25.16;98762.91;5084021;28;1938;-75
2020/12/16 04:34:18;;;;;;;;;;;;;;;22.57;25.04;98769.09;5083698;28;1201;-75
2020/12/16 04:36:45;;;;;;;;;;;;;;;22.33;25.08;98771.16;5084107;28;1194;-75
2020/12/16 04:39:11;;;;;;;;;;;;;;;21.80;25.70;98773.56;5083980;28;1327;-75
2020/12/16 04:41:37;;;;;;;;;;;;;;;21.46;26.57;98772.88;5082867;28;1345;-75
2020/12/16 04:44:10;;;;;;;;;;;;;;;21.99;26.08;98776.94;5068076;28;1184;-75
2020/12/16 04:46:39;;;;;;;;;;;;;;;22.45;25.00;98769.72;5083913;28;1233;-74
2020/12/16 04:49:22;;;;;;;;;;;;;;;22.40;25.44;98767.38;5083441;28;1058;-74
2020/12/16 04:51:52;;;;;;;;;;;;;;;22.68;25.01;98783.88;5067730;28;1203;-75
2020/12/16 04:54:29;;;;;;;;;;;;;;;22.30;25.15;98786.19;5083821;28;1389;-75
2020/12/16 04:56:58;;;;;;;;;;;;;;;21.94;25.66;98785.94;5090073;28;1377;-75
2020/12/16 04:59:32;;;;;;;;;;;;;;;21.55;26.37;98795.78;5083373;28;1181;-75
2020/12/16 05:02:10;;;;;;;;;;;;;;;21.58;26.75;98792.13;5083805;28;1344;-74
2020/12/16 05:04:55;;;;;;;;;;;;;;;22.19;25.61;98797.69;5100733;28;1057;-75
2020/12/16 05:07:28;;;;;;;;;;;;;;;22.52;25.20;98792.28;5101134;28;664;-76
2020/12/16 05:09:53;;;;;;;;;;;;;;;22.43;25.23;98800.53;5100509;28;1981;-75
2020/12/16 05:12:18;;;;;;;;;;;;;;;22.60;25.03;98800.22;5100519;28;926;-76
2020/12/16 05:14:44;;;;;;;;;;;;;;;22.77;24.90;98803.16;5100702;28;938;-77
2020/12/16 05:17:09;;;;;;;;;;;;;;;22.64;24.99;98805.84;5101081;28;622;-76
2020/12/16 05:19:44;;;;;;;;;;;;;;;21.40;26.34;98800.03;5083432;28;1358;-75
2020/12/16 05:22:15;;;;;;;;;;;;;;;21.26;26.59;98798.97;5083091;28;801;-75
2020/12/16 05:24:41;;;;;;;;;;;;;;;21.60;26.33;98806.63;5100142;28;876;-76
2020/12/16 05:27:07;;;;;;;;;;;;;;;21.82;25.99;98807.97;5100352;28;886;-75
2020/12/16 05:29:32;;;;;;;;;;;;;;;22.23;25.74;98806.16;5100559;28;1879;-75
2020/12/16 05:31:58;;;;;;;;;;;;;;;22.39;25.28;98799.81;5100595;28;599;-76
2020/12/16 05:34:29;;;;;;;;;;;;;;;22.46;25.32;98817.50;5100502;28;694;-75
2020/12/16 05:36:54;;;;;;;;;;;;;;;22.54;25.03;98810.47;5100544;28;642;-75
2020/12/16 05:39:20;;;;;;;;;;;;;;;22.24;25.20;98811.38;5082821;28;1210;-77
2020/12/16 05:41:53;;;;;;;;;;;;;;;21.46;26.69;98809.69;5083248;28;881;-78
2020/12/16 05:44:21;;;;;;;;;;;;;;;21.29;26.78;98815.09;5066509;28;1162;-77
2020/12/16 05:46:50;;;;;;;;;;;;;;;21.68;26.89;98825.16;5082422;28;598;-69
2020/12/16 05:49:25;;;;;;;;;;;;;;;22.85;25.35;98828.16;5100978;28;706;-81
2020/12/16 05:51:55;;;;;;;;;;;;;;;21.67;26.59;98828.41;5084971;28;1909;-81
2020/12/16 05:54:21;;;;;;;;;;;;;;;21.23;27.03;98836.59;5067519;28;1285;-82
2020/12/16 05:56:46;;;;;;;;;;;;;;;21.56;27.05;98835.03;5067751;28;872;-79
2020/12/16 05:59:11;;;;;;;;;;;;;;;22.08;26.44;98826.19;5082335;28;682;-79
2020/12/16 06:01:37;;;;;;;;;;;;;;;22.13;26.06;98829.81;5100399;28;638;-78
2020/12/16 06:04:02;;;;;;;;;;;;;;;22.43;25.57;98834.56;5100233;28;629;-78
2020/12/16 06:06:28;;;;;;;;;;;;;;;22.58;25.42;98841.59;5082494;28;867;-78
2020/12/16 06:08:53;;;;;;;;;;;;;;;22.53;25.37;98833.56;5082854;28;914;-80
2020/12/16 06:11:19;;;;;;;;;;;;;;;22.55;25.10;98833.97;5083490;28;1987;-79
2020/12/16 06:13:44;;;;;;;;;;;;;;;22.07;26.00;98832.25;5083687;28;717;-81
2020/12/16 06:16:10;;;;;;;;;;;;;;;21.39;26.66;98836.03;5085192;28;662;-81
2020/12/16 06:18:40;;;;;;;;;;;;;;;21.13;27.15;98836.75;5066069;28;1260;-77
2020/12/16 06:21:06;;;;;;;;;;;;;;;21.74;27.04;98829.09;5083275;28;852;-78
2020/12/16 06:23:35;;;;;;;;;;;;;;;22.18;25.88;98832.97;5065774;28;850;-79
2020/12/16 06:26:01;;;;;;;;;;;;;;;22.38;25.57;98837.88;5052020;28;1298;-81
2020/12/16 06:28:26;;;;;;;;;;;;;;;22.54;25.47;98840.88;5067076;28;734;-79
2020/12/16 06:30:52;;;;;;;;;;;;;;;22.49;25.24;98830.81;5068200;28;1985;-78
2020/12/16 06:33:24;;;;;;;;;;;;;;;21.77;26.15;98839.59;5100372;28;935;-78
2020/12/16 06:35:49;;;;;;;;;;;;;;;21.87;26.27;98834.22;5084623;28;884;-81
2020/12/16 06:38:22;;;;;;;;;;;;;;;21.48;26.67;98833.50;5102854;28;1056;-81
2020/12/16 06:40:51;;;;;;;;;;;;;;;21.92;26.20;98845.88;5051636;28;1309;-78
2020/12/16 06:43:32;;;;;;;;;;;;;;;22.48;25.38;98842.56;5082364;28;954;-77
2020/12/16 06:46:20;;;;;;;;;;;;;;;22.47;25.34;98850.28;5100198;28;1069;-78
2020/12/16 06:48:46;;;;;;;;;;;;;;;22.42;25.48;98855.66;5097070;28;916;-77
2020/12/16 06:51:18;;;;;;;;;;;;;;;22.54;25.36;98852.22;5082725;28;1922;-77
2020/12/16 06:53:43;;;;;;;;;;;;;;;22.08;25.91;98848.84;5099810;28;674;-78
2020/12/16 06:56:09;;;;;;;;;;;;;;;21.64;26.56;98852.72;5083074;28;841;-78
2020/12/16 06:58:34;;;;;;;;;;;;;;;21.19;27.16;98864.19;5081573;28;795;-75
2020/12/16 07:01:10;;;;;;;;;;;;;;;21.73;26.52;98860.69;5082780;28;1091;-79
2020/12/16 07:03:35;;;;;;;;;;;;;;;22.13;25.77;98864.63;5100279;28;951;-77
2020/12/16 07:06:01;;;;;;;;;;;;;;;22.34;25.70;98861.44;5085577;28;880;-77
2020/12/16 07:08:27;;;;;;;;;;;;;;;22.68;25.03;98874.66;5102915;28;1177;-76
2020/12/16 07:10:52;;;;;;;;;;;;;;;22.75;25.13;98876.59;5102966;28;1967;-77
2020/12/16 07:13:34;;;;;;;;;;;;;;;22.09;25.80;98864.63;5068884;28;678;-76
2020/12/16 07:15:59;;;;;;;;;;;;;;;21.38;26.58;98873.28;5077394;28;1323;-77
2020/12/16 07:18:28;;;;;;;;;;;;;;;20.87;27.06;98872.97;5102391;28;1241;-75
2020/12/16 07:21:08;;;;;;;;;;;;;;;21.94;26.40;98882.28;5108431;28;1091;-78
2020/12/16 07:23:57;;;;;;;;;;;;;;;22.47;25.59;98878.66;5102812;28;689;-77
2020/12/16 07:26:29;;;;;;;;;;;;;;;22.46;25.56;98879.09;5094639;28;1026;-76
2020/12/16 07:28:55;;;;;;;;;;;;;;;22.75;25.26;98877.38;5085150;28;773;-76
2020/12/16 07:31:21;;;;;;;;;;;;;;;22.66;25.13;98876.31;5102613;28;1972;-76
2020/12/16 07:33:46;;;;;;;;;;;;;;;22.26;25.38;98882.63;5103402;28;911;-79
2020/12/16 07:36:12;;;;;;;;;;;;;;;21.92;25.72;98879.88;5069593;28;972;-79
2020/12/16 07:38:38;;;;;;;;;;;;;;;21.40;26.65;98882.13;5085232;28;700;-77
2020/12/16 07:41:03;;;;;;;;;;;;;;;21.82;26.64;98881.63;5085650;28;1347;-77
2020/12/16 07:43:29;;;;;;;;;;;;;;;22.31;25.80;98878.50;5068711;28;1150;-78
2020/12/16 07:46:01;;;;;;;;;;;;;;;22.50;25.86;98874.97;5084729;28;858;-72
2020/12/16 07:48:27;;;;;;;;;;;;;;;22.73;26.00;98873.34;5099380;28;1110;-74
2020/12/16 07:51:02;;;;;;;;;;;;;;;22.30;26.51;98883.38;5122538;28;1999;-74
2020/12/16 07:53:28;;;;;;;;;;;;;;;21.63;27.44;98882.28;5122575;28;709;-73
2020/12/16 07:56:03;;;;;;;;;;;;;;;21.57;27.85;98887.59;5087906;28;774;-75
2020/12/16 07:58:32;;;;;;;;;;;;;;;22.06;26.97;98895.84;5104721;28;705;-74
2020/12/16 08:01:08;;;;;;;;;;;;;;;22.43;26.47;98896.94;5105703;28;852;-76
2020/12/16 08:03:34;;;;;;;;;;;;;;;22.75;25.58;98890.78;5088036;28;1103;-74
2020/12/16 08:06:00;;;;;;;;;;;;;;;22.65;25.97;98898.22;5085191;28;1245;-77
2020/12/16 08:08:25;;;;;;;;;;;;;;;22.65;25.67;98897.44;5093802;28;1165;-77
2020/12/16 08:10:50;;;;;;;;;;;;;;;21.93;26.45;98903.34;5092163;28;1992;-75
2020/12/16 08:13:34;;;;;;;;;;;;;;;21.27;27.34;98908.13;5110975;28;1172;-77
2020/12/16 08:16:06;;;;;;;;;;;;;;;21.14;27.94;98909.09;5107603;28;1213;-77
2020/12/16 08:18:32;;;;;;;;;;;;;;;21.65;27.51;98905.28;5107760;28;1168;-77
2020/12/16 08:20:57;;;;;;;;;;;;;;;22.19;26.36;98899.75;5077111;28;1193;-77
2020/12/16 08:23:22;;;;;;;;;;;;;;;22.32;26.13;98897.13;5094397;28;1371;-78
2020/12/16 08:25:48;;;;;;;;;;;;;;;22.57;25.75;98893.88;5093029;28;1248;-77
2020/12/16 08:28:14;;;;;;;;;;;;;;;22.48;25.91;98902.13;5076488;28;1181;-78
2020/12/16 08:30:39;;;;;;;;;;;;;;;22.67;25.78;98901.41;5096240;28;1905;-78
2020/12/16 08:33:09;;;;;;;;;;;;;;;22.04;26.22;98898.31;5087540;28;947;-77
2020/12/16 08:35:39;;;;;;;;;;;;;;;21.41;27.09;98901.56;5087158;28;873;-77
2020/12/16 08:38:05;;;;;;;;;;;;;;;21.41;27.79;98901.56;5104459;28;681;-77
2020/12/16 08:40:31;;;;;;;;;;;;;;;22.10;26.39;98908.78;5121959;28;1091;-77
2020/12/16 08:43:15;;;;;;;;;;;;;;;22.38;25.86;98897.44;5103880;28;1074;-77
2020/12/16 08:45:40;;;;;;;;;;;;;;;22.33;26.07;98888.19;5104440;28;905;-78
2020/12/16 08:48:06;;;;;;;;;;;;;;;22.50;25.81;98897.66;5087226;28;903;-78
2020/12/16 08:50:31;;;;;;;;;;;;;;;22.55;25.79;98897.16;5087190;28;1981;-76
2020/12/16 08:52:59;;;;;;;;;;;;;;;22.09;26.09;98901.47;5101337;28;1070;-66
2020/12/16 08:55:24;;;;;;;;;;;;;;;22.10;26.74;98891.78;5100621;28;1157;-66
2020/12/16 08:57:54;;;;;;;;;;;;;;;22.12;27.05;98888.50;5121521;28;678;-76
2020/12/16 09:00:24;;;;;;;;;;;;;;;21.74;27.70;98885.75;5103234;28;947;-73
2020/12/16 09:03:19;;;;;;;;;;;;;;;21.45;28.26;98887.34;5121574;28;926;-75
2020/12/16 09:05:44;;;;;;;;;;;;;;;21.20;28.58;98891.25;5103998;28;1193;-75
2020/12/16 09:08:14;;;;;;;;;;;;;;;21.03;28.66;98892.22;5103796;28;689;-75
2020/12/16 09:10:39;;;;;;;;;;;;;;;22.04;27.36;98884.94;5121464;28;1909;-69
2020/12/16 09:13:08;;;;;;;;;;;;;;;22.35;27.04;98882.88;5121104;28;634;-67
2020/12/16 09:15:34;;;;;;;;;;;;;;;22.44;27.08;98882.34;5121014;28;838;-67
2020/12/16 09:18:00;;;;;;;;;;;;;;;22.27;27.61;98883.41;5121056;28;832;-75
2020/12/16 09:20:26;;;;;;;;;;;;;;;20.99;29.66;98883.00;5120761;28;774;-68
2020/12/16 09:22:53;;;;;;;;;;;;;;;22.28;27.93;98868.84;5121151;28;693;-75
2020/12/16 09:25:20;;;;;;;;;;;;;;;21.81;28.25;98880.03;5120855;27;653;-75
2020/12/16 09:27:52;;;;;;;;;;;;;;;21.50;28.82;98875.53;5120585;28;673;-75
2020/12/16 09:30:25;;;;;;;;;;;;;;;21.33;28.86;98866.84;5102725;28;1974;-74
2020/12/16 09:32:50;;;;;;;;;;;;;;;21.72;28.08;98874.06;5120560;28;858;-73
2020/12/16 09:35:16;;;;;;;;;;;;;;;22.18;27.39;98874.69;5120924;28;854;-76
2020/12/16 09:37:42;;;;;;;;;;;;;;;22.17;27.24;98873.84;5120979;28;665;-76
2020/12/16 09:40:08;;;;;;;;;;;;;;;22.49;26.48;98872.56;5121041;28;1180;-77
2020/12/16 09:42:33;;;;;;;;;;;;;;;22.36;26.77;98867.47;5103637;28;666;-76
2020/12/16 09:45:20;;;;;;;;;;;;;;;22.81;26.04;98869.97;5103536;28;650;-76
2020/12/16 09:47:46;;;;;;;;;;;;;;;21.83;27.16;98871.88;5103258;28;984;-75
2020/12/16 09:50:11;;;;;;;;;;;;;;;21.15;28.40;98866.25;5102451;28;1905;-75
2020/12/16 09:52:37;;;;;;;;;;;;;;;21.31;28.19;98858.00;5120961;28;672;-77
2020/12/16 09:55:13;;;;;;;;;;;;;;;21.96;27.17;98862.78;5103081;28;952;-76
2020/12/16 09:57:38;;;;;;;;;;;;;;;22.30;26.50;98860.69;5102667;28;807;-76
2020/12/16 10:00:04;;;;;;;;;;;;;;;22.31;26.51;98856.63;5120829;28;669;-76
2020/12/16 10:02:34;;;;;;;;;;;;;;;22.53;25.98;98856.25;5119984;28;882;-74
2020/12/16 10:05:00;;;;;;;;;;;;;;;22.75;25.66;98863.19;5102708;28;887;-76
2020/12/16 10:07:25;;;;;;;;;;;;;;;21.77;26.80;98853.75;5110977;28;1078;-75
2020/12/16 10:09:54;;;;;;;;;;;;;;;20.95;28.06;98856.75;5105250;28;1914;-74
2020/12/16 10:12:23;;;;;;;;;;;;;;;21.44;27.28;98857.44;5099980;28;660;-74
2020/12/16 10:14:49;;;;;;;;;;;;;;;21.85;27.40;98857.28;5096288;28;1075;-76
2020/12/16 10:17:14;;;;;;;;;;;;;;;22.21;26.53;98857.59;5102729;28;821;-75
2020/12/16 10:19:40;;;;;;;;;;;;;;;22.51;25.99;98850.22;5120142;28;888;-76
2020/12/16 10:22:05;;;;;;;;;;;;;;;22.75;25.37;98846.16;5120570;28;988;-75
2020/12/16 10:24:31;;;;;;;;;;;;;;;22.69;25.74;98845.06;5102660;28;824;-76
2020/12/16 10:27:01;;;;;;;;;;;;;;;21.87;26.80;98848.38;5079348;28;1153;-75
2020/12/16 10:29:27;;;;;;;;;;;;;;;21.45;27.38;98844.88;5099709;28;689;-75
2020/12/16 10:31:52;;;;;;;;;;;;;;;21.21;28.01;98838.28;5082243;28;1901;-76
2020/12/16 10:34:19;;;;;;;;;;;;;;;22.00;27.09;98833.19;5099366;28;863;-75
2020/12/16 10:36:54;;;;;;;;;;;;;;;22.34;26.14;98838.75;5100130;28;849;-76
2020/12/16 10:39:20;;;;;;;;;;;;;;;22.35;26.29;98834.69;5081939;28;1197;-76
2020/12/16 10:41:49;;;;;;;;;;;;;;;22.59;25.56;98837.53;5086448;28;902;-75
2020/12/16 10:44:14;;;;;;;;;;;;;;;22.62;25.69;98834.63;5093640;28;1141;-75
2020/12/16 10:46:43;;;;;;;;;;;;;;;21.85;26.57;98829.75;5114107;28;1157;-76
2020/12/16 10:49:08;;;;;;;;;;;;;;;21.72;26.78;98825.13;5097974;28;1174;-76
2020/12/16 10:51:34;;;;;;;;;;;;;;;21.20;27.86;98823.31;5109096;28;1905;-75
2020/12/16 10:54:00;;;;;;;;;;;;;;;21.85;26.84;98824.09;5111951;28;1168;-75
2020/12/16 10:56:25;;;;;;;;;;;;;;;22.29;26.28;98853.44;5113375;28;1149;-77
2020/12/16 10:58:51;;;;;;;;;;;;;;;22.51;26.11;98824.72;5085927;28;1240;-76
2020/12/16 11:01:16;;;;;;;;;;;;;;;22.74;25.41;98816.19;5111618;28;1035;-76
2020/12/16 11:03:42;;;;;;;;;;;;;;;22.41;26.00;98825.69;5120633;28;1094;-76
2020/12/16 11:06:07;;;;;;;;;;;;;;;21.52;27.13;98816.47;5124063;28;950;-76
2020/12/16 11:08:33;;;;;;;;;;;;;;;21.40;26.88;98809.38;5105772;28;957;-74
2020/12/16 11:10:59;;;;;;;;;;;;;;;21.39;27.43;98815.44;5105874;28;1894;-76
2020/12/16 11:13:24;;;;;;;;;;;;;;;22.07;26.46;98801.91;5123185;28;729;-75
2020/12/16 11:15:49;;;;;;;;;;;;;;;22.29;26.13;98808.06;5123222;28;975;-75
2020/12/16 11:18:15;;;;;;;;;;;;;;;22.58;25.83;98808.34;5123213;28;954;-76
2020/12/16 11:20:43;;;;;;;;;;;;;;;22.74;25.63;98798.34;5123472;28;895;-77
2020/12/16 11:23:09;;;;;;;;;;;;;;;22.75;25.69;98795.09;5123620;28;656;-77
2020/12/16 11:25:34;;;;;;;;;;;;;;;21.90;26.67;98790.84;5123715;28;602;-76
2020/12/16 11:28:00;;;;;;;;;;;;;;;21.55;27.11;98802.28;5123408;28;646;-77
2020/12/16 11:30:25;;;;;;;;;;;;;;;21.92;26.66;98799.72;5123404;28;1894;-77
2020/12/16 11:32:51;;;;;;;;;;;;;;;21.97;26.79;98790.75;5123289;28;914;-77
2020/12/16 11:35:16;;;;;;;;;;;;;;;22.19;26.43;98797.69;5105580;28;799;-76
2020/12/16 11:37:44;;;;;;;;;;;;;;;22.21;26.49;98795.22;5105588;28;789;-76
2020/12/16 11:40:10;;;;;;;;;;;;;;;22.59;25.64;98795.00;5122496;28;933;-75
2020/12/16 11:42:35;;;;;;;;;;;;;;;22.80;25.30;98803.13;5123235;28;713;-75
2020/12/16 11:45:01;;;;;;;;;;;;;;;21.98;26.32;98792.34;5122592;28;936;-76
2020/12/16 11:47:26;;;;;;;;;;;;;;;20.93;28.14;98797.75;5104816;28;816;-74
2020/12/16 11:49:51;;;;;;;;;;;;;;;21.50;27.36;98796.25;5122690;28;1902;-75
2020/12/16 11:52:17;;;;;;;;;;;;;;;21.91;27.08;98792.44;5122392;28;610;-74
2020/12/16 11:54:43;;;;;;;;;;;;;;;22.14;26.42;98795.34;5104907;28;1210;-74
2020/12/16 11:57:09;;;;;;;;;;;;;;;22.27;26.43;98793.50;5122602;28;741;-75
2020/12/16 11:59:34;;;;;;;;;;;;;;;22.55;25.77;98792.22;5122248;28;959;-77
2020/12/16 12:02:04;;;;;;;;;;;;;;;22.65;25.50;98798.94;5122796;28;966;-76
2020/12/16 12:04:30;;;;;;;;;;;;;;;22.55;25.78;98803.56;5088080;28;1343;-77
2020/12/16 12:06:56;;;;;;;;;;;;;;;21.95;26.57;98808.16;5123182;28;609;-74
2020/12/16 12:09:21;;;;;;;;;;;;;;;21.28;27.07;98807.84;5104618;28;706;-74
2020/12/16 12:11:48;;;;;;;;;;;;;;;21.82;27.29;98802.28;5104734;28;1890;-77
2020/12/16 12:14:14;;;;;;;;;;;;;;;22.24;26.25;98805.72;5105095;28;1082;-77
2020/12/16 12:16:39;;;;;;;;;;;;;;;22.53;25.90;98802.38;5084289;28;875;-76
2020/12/16 12:19:05;;;;;;;;;;;;;;;22.55;25.91;98814.13;5102442;28;844;-78
2020/12/16 12:21:30;;;;;;;;;;;;;;;22.54;25.91;98806.84;5067165;28;868;-75
2020/12/16 12:23:56;;;;;;;;;;;;;;;22.53;25.92;98802.38;5101677;28;693;-75
2020/12/16 12:26:21;;;;;;;;;;;;;;;21.87;26.68;98800.22;5101776;28;745;-75
2020/12/16 12:28:47;;;;;;;;;;;;;;;21.52;26.86;98811.63;5083489;28;809;-73
2020/12/16 12:31:13;;;;;;;;;;;;;;;21.49;27.29;98808.81;5101359;28;2041;-75
2020/12/16 12:33:38;;;;;;;;;;;;;;;21.91;26.95;98803.78;5101484;28;798;-75
2020/12/16 12:36:03;;;;;;;;;;;;;;;22.43;25.89;98814.72;5101856;28;666;-75
2020/12/16 12:38:29;;;;;;;;;;;;;;;22.51;25.87;98807.69;5101356;28;721;-74
2020/12/16 12:40:54;;;;;;;;;;;;;;;22.58;25.69;98816.06;5083785;28;953;-75
2020/12/16 12:43:20;;;;;;;;;;;;;;;21.60;27.05;98815.13;5083134;28;928;-75
2020/12/16 12:45:46;;;;;;;;;;;;;;;21.57;26.76;98819.63;5101688;28;831;-75
2020/12/16 12:48:11;;;;;;;;;;;;;;;21.39;27.45;98815.44;5101303;28;1018;-75
2020/12/16 12:50:37;;;;;;;;;;;;;;;21.92;26.81;98811.88;5101039;28;1973;-74
2020/12/16 12:53:02;;;;;;;;;;;;;;;22.36;26.26;98812.81;5100908;28;686;-76
2020/12/16 12:55:28;;;;;;;;;;;;;;;22.32;26.23;98812.06;5067272;28;906;-76
2020/12/16 12:57:53;;;;;;;;;;;;;;;22.60;25.57;98819.28;5100720;28;924;-75
2020/12/16 13:00:18;;;;;;;;;;;;;;;22.65;25.57;98813.13;5100656;28;864;-75
2020/12/16 13:02:44;;;;;;;;;;;;;;;21.99;26.42;98813.78;5100207;28;854;-75
2020/12/16 13:05:10;;;;;;;;;;;;;;;21.43;27.42;98814.16;5100599;28;622;-76
2020/12/16 13:07:35;;;;;;;;;;;;;;;21.40;27.23;98820.69;5083587;28;698;-76
2020/12/16 13:10:01;;;;;;;;;;;;;;;21.75;27.31;98813.72;5101057;28;1909;-78